sensor_id;sensor_type;location;lat;lon;timestamp;P1;durP1;ratioP1;P2;durP2;ratioP2
84614;SDS011;74845;51.204;22.580;2024-03-02T00:00:27;23.02;;;20.52;;
84614;SDS011;74845;51.204;22.580;2024-03-02T00:02:54;22.27;;;19.08;;
84614;SDS011;74845;51.204;22.580;2024-03-02T00:05:21;21.17;;;18.58;;
84614;SDS011;74845;51.204;22.580;2024-03-02T00:07:53;22.98;;;20.55;;
84614;SDS011;74845;51.204;22.580;2024-03-02T00:10:22;23.48;;;21.00;;
84614;SDS011;74845;51.204;22.580;2024-03-02T00:12:56;26.00;;;21.08;;
84614;SDS011;74845;51.204;22.580;2024-03-02T00:18:13;23.00;;;20.63;;
84614;SDS011;74845;51.204;22.580;2024-03-02T00:20:42;26.42;;;23.40;;
84614;SDS011;74845;51.204;22.580;2024-03-02T00:23:09;28.55;;;23.70;;
84614;SDS011;74845;51.204;22.580;2024-03-02T00:25:44;30.55;;;25.30;;
84614;SDS011;74845;51.204;22.580;2024-03-02T00:28:14;27.17;;;24.48;;
84614;SDS011;74845;51.204;22.580;2024-03-02T00:33:21;30.10;;;27.08;;
84614;SDS011;74845;51.204;22.580;2024-03-02T00:35:49;30.05;;;26.67;;
84614;SDS011;74845;51.204;22.580;2024-03-02T00:38:17;28.50;;;23.88;;
84614;SDS011;74845;51.204;22.580;2024-03-02T00:40:44;32.42;;;25.80;;
84614;SDS011;74845;51.204;22.580;2024-03-02T00:46:10;27.88;;;24.92;;
84614;SDS011;74845;51.204;22.580;2024-03-02T00:51:30;32.22;;;25.63;;
84614;SDS011;74845;51.204;22.580;2024-03-02T00:54:00;33.43;;;29.73;;
84614;SDS011;74845;51.204;22.580;2024-03-02T00:56:31;29.63;;;26.45;;
84614;SDS011;74845;51.204;22.580;2024-03-02T00:58:58;30.45;;;25.55;;
84614;SDS011;74845;51.204;22.580;2024-03-02T01:01:25;32.00;;;27.00;;
84614;SDS011;74845;51.204;22.580;2024-03-02T01:03:54;31.10;;;27.98;;
84614;SDS011;74845;51.204;22.580;2024-03-02T01:06:21;31.67;;;27.33;;
84614;SDS011;74845;51.204;22.580;2024-03-02T01:08:49;34.65;;;28.48;;
84614;SDS011;74845;51.204;22.580;2024-03-02T01:11:19;34.53;;;29.33;;
84614;SDS011;74845;51.204;22.580;2024-03-02T01:13:49;32.42;;;28.95;;
84614;SDS011;74845;51.204;22.580;2024-03-02T01:16:16;31.02;;;27.60;;
84614;SDS011;74845;51.204;22.580;2024-03-02T01:18:43;32.67;;;26.77;;
84614;SDS011;74845;51.204;22.580;2024-03-02T01:21:11;34.85;;;28.70;;
84614;SDS011;74845;51.204;22.580;2024-03-02T01:23:38;34.10;;;30.02;;
84614;SDS011;74845;51.204;22.580;2024-03-02T01:26:05;33.28;;;28.23;;
84614;SDS011;74845;51.204;22.580;2024-03-02T01:28:32;28.42;;;25.42;;
84614;SDS011;74845;51.204;22.580;2024-03-02T01:30:58;32.58;;;25.70;;
84614;SDS011;74845;51.204;22.580;2024-03-02T01:33:25;28.67;;;25.63;;
84614;SDS011;74845;51.204;22.580;2024-03-02T01:35:52;28.88;;;25.33;;
84614;SDS011;74845;51.204;22.580;2024-03-02T01:38:19;25.60;;;22.95;;
84614;SDS011;74845;51.204;22.580;2024-03-02T01:40:46;27.30;;;24.25;;
84614;SDS011;74845;51.204;22.580;2024-03-02T01:43:13;30.65;;;25.60;;
84614;SDS011;74845;51.204;22.580;2024-03-02T01:45:40;34.97;;;26.55;;
84614;SDS011;74845;51.204;22.580;2024-03-02T01:48:07;30.60;;;25.10;;
84614;SDS011;74845;51.204;22.580;2024-03-02T01:50:34;24.27;;;21.67;;
84614;SDS011;74845;51.204;22.580;2024-03-02T01:53:01;28.67;;;24.90;;
84614;SDS011;74845;51.204;22.580;2024-03-02T01:55:29;29.92;;;25.65;;
84614;SDS011;74845;51.204;22.580;2024-03-02T01:57:57;31.73;;;24.05;;
84614;SDS011;74845;51.204;22.580;2024-03-02T02:00:25;30.25;;;24.88;;
84614;SDS011;74845;51.204;22.580;2024-03-02T02:02:53;32.50;;;26.80;;
84614;SDS011;74845;51.204;22.580;2024-03-02T02:05:21;31.00;;;27.77;;
84614;SDS011;74845;51.204;22.580;2024-03-02T02:07:48;32.83;;;29.17;;
84614;SDS011;74845;51.204;22.580;2024-03-02T02:10:15;29.02;;;24.98;;
84614;SDS011;74845;51.204;22.580;2024-03-02T02:12:42;29.55;;;26.13;;
84614;SDS011;74845;51.204;22.580;2024-03-02T02:15:22;30.23;;;26.60;;
84614;SDS011;74845;51.204;22.580;2024-03-02T02:17:56;29.15;;;26.05;;
84614;SDS011;74845;51.204;22.580;2024-03-02T02:20:24;28.60;;;25.58;;
84614;SDS011;74845;51.204;22.580;2024-03-02T02:22:58;34.83;;;27.65;;
84614;SDS011;74845;51.204;22.580;2024-03-02T02:25:27;29.50;;;26.33;;
84614;SDS011;74845;51.204;22.580;2024-03-02T02:27:55;32.47;;;27.42;;
84614;SDS011;74845;51.204;22.580;2024-03-02T02:30:31;32.83;;;28.45;;
84614;SDS011;74845;51.204;22.580;2024-03-02T02:32:59;31.00;;;27.73;;
84614;SDS011;74845;51.204;22.580;2024-03-02T02:35:26;32.67;;;28.95;;
84614;SDS011;74845;51.204;22.580;2024-03-02T02:37:54;35.80;;;28.70;;
84614;SDS011;74845;51.204;22.580;2024-03-02T02:40:22;32.90;;;27.85;;
84614;SDS011;74845;51.204;22.580;2024-03-02T02:42:50;35.45;;;27.95;;
84614;SDS011;74845;51.204;22.580;2024-03-02T02:45:19;36.13;;;28.00;;
84614;SDS011;74845;51.204;22.580;2024-03-02T02:47:46;33.42;;;27.27;;
84614;SDS011;74845;51.204;22.580;2024-03-02T02:50:13;32.47;;;27.30;;
84614;SDS011;74845;51.204;22.580;2024-03-02T02:52:40;33.65;;;29.58;;
84614;SDS011;74845;51.204;22.580;2024-03-02T02:55:09;37.92;;;30.48;;
84614;SDS011;74845;51.204;22.580;2024-03-02T02:57:38;40.00;;;31.15;;
84614;SDS011;74845;51.204;22.580;2024-03-02T03:00:09;35.03;;;30.85;;
84614;SDS011;74845;51.204;22.580;2024-03-02T03:02:41;44.53;;;32.67;;
84614;SDS011;74845;51.204;22.580;2024-03-02T03:05:09;37.13;;;30.90;;
84614;SDS011;74845;51.204;22.580;2024-03-02T03:07:37;41.20;;;30.65;;
84614;SDS011;74845;51.204;22.580;2024-03-02T03:10:06;41.80;;;33.80;;
84614;SDS011;74845;51.204;22.580;2024-03-02T03:12:34;42.88;;;32.40;;
84614;SDS011;74845;51.204;22.580;2024-03-02T03:15:02;39.10;;;33.38;;
84614;SDS011;74845;51.204;22.580;2024-03-02T03:17:31;43.23;;;34.93;;
84614;SDS011;74845;51.204;22.580;2024-03-02T03:19:58;41.03;;;31.92;;
84614;SDS011;74845;51.204;22.580;2024-03-02T03:22:25;49.75;;;39.17;;
84614;SDS011;74845;51.204;22.580;2024-03-02T03:24:52;39.40;;;35.05;;
84614;SDS011;74845;51.204;22.580;2024-03-02T03:27:19;44.53;;;36.28;;
84614;SDS011;74845;51.204;22.580;2024-03-02T03:29:46;43.80;;;35.30;;
84614;SDS011;74845;51.204;22.580;2024-03-02T03:32:13;47.40;;;36.05;;
84614;SDS011;74845;51.204;22.580;2024-03-02T03:34:40;47.53;;;38.15;;
84614;SDS011;74845;51.204;22.580;2024-03-02T03:37:07;48.47;;;37.30;;
84614;SDS011;74845;51.204;22.580;2024-03-02T03:39:34;51.00;;;37.83;;
84614;SDS011;74845;51.204;22.580;2024-03-02T03:42:04;42.58;;;33.58;;
84614;SDS011;74845;51.204;22.580;2024-03-02T03:44:31;43.58;;;34.08;;
84614;SDS011;74845;51.204;22.580;2024-03-02T03:46:58;42.20;;;35.58;;
84614;SDS011;74845;51.204;22.580;2024-03-02T03:49:25;48.28;;;36.42;;
84614;SDS011;74845;51.204;22.580;2024-03-02T03:51:51;43.85;;;34.42;;
84614;SDS011;74845;51.204;22.580;2024-03-02T03:54:18;39.70;;;31.00;;
84614;SDS011;74845;51.204;22.580;2024-03-02T03:56:45;40.78;;;34.47;;
84614;SDS011;74845;51.204;22.580;2024-03-02T03:59:12;51.90;;;37.58;;
84614;SDS011;74845;51.204;22.580;2024-03-02T04:01:39;43.00;;;36.83;;
84614;SDS011;74845;51.204;22.580;2024-03-02T04:04:06;42.85;;;32.85;;
84614;SDS011;74845;51.204;22.580;2024-03-02T04:06:33;40.20;;;30.20;;
84614;SDS011;74845;51.204;22.580;2024-03-02T04:09:00;42.33;;;34.60;;
84614;SDS011;74845;51.204;22.580;2024-03-02T04:11:27;37.25;;;32.00;;
84614;SDS011;74845;51.204;22.580;2024-03-02T04:13:53;35.55;;;29.42;;
84614;SDS011;74845;51.204;22.580;2024-03-02T04:16:24;38.70;;;31.80;;
84614;SDS011;74845;51.204;22.580;2024-03-02T04:18:50;39.65;;;30.92;;
84614;SDS011;74845;51.204;22.580;2024-03-02T04:21:17;45.50;;;36.40;;
84614;SDS011;74845;51.204;22.580;2024-03-02T04:23:44;43.85;;;35.45;;
84614;SDS011;74845;51.204;22.580;2024-03-02T04:26:11;39.42;;;34.40;;
84614;SDS011;74845;51.204;22.580;2024-03-02T04:28:38;45.28;;;35.90;;
84614;SDS011;74845;51.204;22.580;2024-03-02T04:31:04;49.83;;;35.70;;
84614;SDS011;74845;51.204;22.580;2024-03-02T04:33:31;43.55;;;37.20;;
84614;SDS011;74845;51.204;22.580;2024-03-02T04:35:58;52.08;;;38.25;;
84614;SDS011;74845;51.204;22.580;2024-03-02T04:38:25;52.35;;;37.88;;
84614;SDS011;74845;51.204;22.580;2024-03-02T04:40:52;55.45;;;38.83;;
84614;SDS011;74845;51.204;22.580;2024-03-02T04:43:18;51.33;;;39.33;;
84614;SDS011;74845;51.204;22.580;2024-03-02T04:45:45;51.97;;;39.03;;
84614;SDS011;74845;51.204;22.580;2024-03-02T04:48:12;58.63;;;40.55;;
84614;SDS011;74845;51.204;22.580;2024-03-02T04:50:40;53.05;;;39.92;;
84614;SDS011;74845;51.204;22.580;2024-03-02T04:53:07;51.10;;;39.15;;
84614;SDS011;74845;51.204;22.580;2024-03-02T04:55:34;50.58;;;38.58;;
84614;SDS011;74845;51.204;22.580;2024-03-02T04:58:01;49.45;;;35.90;;
84614;SDS011;74845;51.204;22.580;2024-03-02T05:00:28;49.95;;;38.08;;
84614;SDS011;74845;51.204;22.580;2024-03-02T05:02:55;54.63;;;40.90;;
84614;SDS011;74845;51.204;22.580;2024-03-02T05:05:22;46.70;;;35.55;;
84614;SDS011;74845;51.204;22.580;2024-03-02T05:07:49;52.75;;;40.05;;
84614;SDS011;74845;51.204;22.580;2024-03-02T05:10:15;51.80;;;38.25;;
84614;SDS011;74845;51.204;22.580;2024-03-02T05:12:42;56.35;;;40.88;;
84614;SDS011;74845;51.204;22.580;2024-03-02T05:15:10;53.33;;;40.40;;
84614;SDS011;74845;51.204;22.580;2024-03-02T05:17:38;44.63;;;34.50;;
84614;SDS011;74845;51.204;22.580;2024-03-02T05:20:06;50.55;;;36.42;;
84614;SDS011;74845;51.204;22.580;2024-03-02T05:22:37;49.63;;;37.33;;
84614;SDS011;74845;51.204;22.580;2024-03-02T05:25:04;45.85;;;36.28;;
84614;SDS011;74845;51.204;22.580;2024-03-02T05:27:32;52.47;;;35.75;;
84614;SDS011;74845;51.204;22.580;2024-03-02T05:29:59;53.38;;;38.60;;
84614;SDS011;74845;51.204;22.580;2024-03-02T05:32:26;56.53;;;40.35;;
84614;SDS011;74845;51.204;22.580;2024-03-02T05:34:54;69.57;;;45.47;;
84614;SDS011;74845;51.204;22.580;2024-03-02T05:37:21;50.97;;;38.92;;
84614;SDS011;74845;51.204;22.580;2024-03-02T05:39:48;52.72;;;38.25;;
84614;SDS011;74845;51.204;22.580;2024-03-02T05:42:15;57.22;;;39.47;;
84614;SDS011;74845;51.204;22.580;2024-03-02T05:44:45;53.85;;;37.38;;
84614;SDS011;74845;51.204;22.580;2024-03-02T05:47:12;51.47;;;39.83;;
84614;SDS011;74845;51.204;22.580;2024-03-02T05:49:39;55.08;;;39.15;;
84614;SDS011;74845;51.204;22.580;2024-03-02T05:52:06;55.80;;;42.55;;
84614;SDS011;74845;51.204;22.580;2024-03-02T05:54:33;61.85;;;42.50;;
84614;SDS011;74845;51.204;22.580;2024-03-02T05:57:00;47.35;;;35.67;;
84614;SDS011;74845;51.204;22.580;2024-03-02T05:59:43;51.00;;;38.60;;
84614;SDS011;74845;51.204;22.580;2024-03-02T06:02:11;55.97;;;37.80;;
84614;SDS011;74845;51.204;22.580;2024-03-02T06:04:37;57.70;;;42.08;;
84614;SDS011;74845;51.204;22.580;2024-03-02T06:07:04;54.28;;;41.10;;
84614;SDS011;74845;51.204;22.580;2024-03-02T06:09:31;50.47;;;36.90;;
84614;SDS011;74845;51.204;22.580;2024-03-02T06:11:58;49.15;;;38.92;;
84614;SDS011;74845;51.204;22.580;2024-03-02T06:14:25;51.85;;;38.20;;
84614;SDS011;74845;51.204;22.580;2024-03-02T06:16:52;45.63;;;37.53;;
84614;SDS011;74845;51.204;22.580;2024-03-02T06:19:19;46.60;;;37.90;;
84614;SDS011;74845;51.204;22.580;2024-03-02T06:21:45;44.13;;;36.47;;
84614;SDS011;74845;51.204;22.580;2024-03-02T06:24:12;51.67;;;40.75;;
84614;SDS011;74845;51.204;22.580;2024-03-02T06:26:39;43.67;;;35.83;;
84614;SDS011;74845;51.204;22.580;2024-03-02T06:29:06;51.22;;;38.83;;
84614;SDS011;74845;51.204;22.580;2024-03-02T06:31:34;53.47;;;38.72;;
84614;SDS011;74845;51.204;22.580;2024-03-02T06:34:01;48.17;;;37.92;;
84614;SDS011;74845;51.204;22.580;2024-03-02T06:36:30;49.25;;;38.70;;
84614;SDS011;74845;51.204;22.580;2024-03-02T06:38:57;41.30;;;34.53;;
84614;SDS011;74845;51.204;22.580;2024-03-02T06:41:23;44.83;;;36.03;;
84614;SDS011;74845;51.204;22.580;2024-03-02T06:43:50;43.80;;;35.55;;
84614;SDS011;74845;51.204;22.580;2024-03-02T06:46:20;41.97;;;34.78;;
84614;SDS011;74845;51.204;22.580;2024-03-02T06:48:47;42.88;;;32.20;;
84614;SDS011;74845;51.204;22.580;2024-03-02T06:51:14;42.80;;;35.13;;
84614;SDS011;74845;51.204;22.580;2024-03-02T06:53:42;40.47;;;33.35;;
84614;SDS011;74845;51.204;22.580;2024-03-02T06:56:09;35.10;;;31.33;;
84614;SDS011;74845;51.204;22.580;2024-03-02T06:58:35;40.45;;;33.22;;
84614;SDS011;74845;51.204;22.580;2024-03-02T07:01:02;35.72;;;31.65;;
84614;SDS011;74845;51.204;22.580;2024-03-02T07:03:29;43.20;;;31.45;;
84614;SDS011;74845;51.204;22.580;2024-03-02T07:05:56;36.95;;;30.38;;
84614;SDS011;74845;51.204;22.580;2024-03-02T07:08:23;37.45;;;30.27;;
84614;SDS011;74845;51.204;22.580;2024-03-02T07:10:50;34.42;;;29.42;;
84614;SDS011;74845;51.204;22.580;2024-03-02T07:13:17;37.72;;;28.65;;
84614;SDS011;74845;51.204;22.580;2024-03-02T07:15:44;38.90;;;30.17;;
84614;SDS011;74845;51.204;22.580;2024-03-02T07:18:33;30.83;;;26.83;;
84614;SDS011;74845;51.204;22.580;2024-03-02T07:21:01;32.75;;;29.13;;
84614;SDS011;74845;51.204;22.580;2024-03-02T07:23:28;35.08;;;27.88;;
84614;SDS011;74845;51.204;22.580;2024-03-02T07:25:55;32.03;;;26.55;;
84614;SDS011;74845;51.204;22.580;2024-03-02T07:28:25;33.58;;;27.83;;
84614;SDS011;74845;51.204;22.580;2024-03-02T07:31:03;33.58;;;28.67;;
84614;SDS011;74845;51.204;22.580;2024-03-02T07:33:31;32.33;;;25.90;;
84614;SDS011;74845;51.204;22.580;2024-03-02T07:35:58;29.67;;;26.20;;
84614;SDS011;74845;51.204;22.580;2024-03-02T07:38:30;29.75;;;24.55;;
84614;SDS011;74845;51.204;22.580;2024-03-02T07:40:58;29.40;;;24.00;;
84614;SDS011;74845;51.204;22.580;2024-03-02T07:43:26;31.77;;;24.63;;
84614;SDS011;74845;51.204;22.580;2024-03-02T07:45:53;31.02;;;26.58;;
84614;SDS011;74845;51.204;22.580;2024-03-02T07:48:21;29.27;;;24.85;;
84614;SDS011;74845;51.204;22.580;2024-03-02T07:50:48;30.40;;;25.55;;
84614;SDS011;74845;51.204;22.580;2024-03-02T07:53:14;27.70;;;24.08;;
84614;SDS011;74845;51.204;22.580;2024-03-02T07:55:41;28.65;;;25.55;;
84614;SDS011;74845;51.204;22.580;2024-03-02T07:58:08;27.20;;;24.23;;
84614;SDS011;74845;51.204;22.580;2024-03-02T08:00:35;28.40;;;25.42;;
84614;SDS011;74845;51.204;22.580;2024-03-02T08:03:02;27.33;;;24.50;;
84614;SDS011;74845;51.204;22.580;2024-03-02T08:05:29;30.33;;;26.52;;
84614;SDS011;74845;51.204;22.580;2024-03-02T08:07:56;30.58;;;25.05;;
84614;SDS011;74845;51.204;22.580;2024-03-02T08:10:23;34.05;;;26.88;;
84614;SDS011;74845;51.204;22.580;2024-03-02T08:12:50;30.73;;;26.73;;
84614;SDS011;74845;51.204;22.580;2024-03-02T08:15:17;25.13;;;22.55;;
84614;SDS011;74845;51.204;22.580;2024-03-02T08:17:44;28.45;;;25.52;;
84614;SDS011;74845;51.204;22.580;2024-03-02T08:20:15;33.38;;;26.27;;
84614;SDS011;74845;51.204;22.580;2024-03-02T08:22:42;27.38;;;24.50;;
84614;SDS011;74845;51.204;22.580;2024-03-02T08:25:09;28.52;;;25.52;;
84614;SDS011;74845;51.204;22.580;2024-03-02T08:27:36;28.60;;;23.17;;
84614;SDS011;74845;51.204;22.580;2024-03-02T08:30:03;28.08;;;24.30;;
84614;SDS011;74845;51.204;22.580;2024-03-02T08:32:33;28.13;;;24.98;;
84614;SDS011;74845;51.204;22.580;2024-03-02T08:35:00;25.08;;;21.50;;
84614;SDS011;74845;51.204;22.580;2024-03-02T08:37:27;28.75;;;25.88;;
84614;SDS011;74845;51.204;22.580;2024-03-02T08:39:54;27.80;;;24.80;;
84614;SDS011;74845;51.204;22.580;2024-03-02T08:42:21;30.40;;;26.83;;
84614;SDS011;74845;51.204;22.580;2024-03-02T08:44:49;30.35;;;27.15;;
84614;SDS011;74845;51.204;22.580;2024-03-02T08:47:16;29.00;;;25.08;;
84614;SDS011;74845;51.204;22.580;2024-03-02T08:49:43;30.65;;;25.50;;
84614;SDS011;74845;51.204;22.580;2024-03-02T08:52:10;33.22;;;26.50;;
84614;SDS011;74845;51.204;22.580;2024-03-02T08:54:37;29.90;;;25.95;;
84614;SDS011;74845;51.204;22.580;2024-03-02T08:57:04;27.83;;;24.95;;
84614;SDS011;74845;51.204;22.580;2024-03-02T08:59:32;26.85;;;23.70;;
84614;SDS011;74845;51.204;22.580;2024-03-02T09:01:58;28.50;;;23.30;;
84614;SDS011;74845;51.204;22.580;2024-03-02T09:04:26;26.85;;;23.95;;
84614;SDS011;74845;51.204;22.580;2024-03-02T09:06:56;30.88;;;25.60;;
84614;SDS011;74845;51.204;22.580;2024-03-02T09:09:23;30.02;;;23.05;;
84614;SDS011;74845;51.204;22.580;2024-03-02T09:11:50;30.95;;;25.77;;
84614;SDS011;74845;51.204;22.580;2024-03-02T09:14:17;34.42;;;29.23;;
84614;SDS011;74845;51.204;22.580;2024-03-02T09:16:43;28.60;;;25.25;;
84614;SDS011;74845;51.204;22.580;2024-03-02T09:19:10;28.83;;;25.77;;
84614;SDS011;74845;51.204;22.580;2024-03-02T09:21:37;31.23;;;25.75;;
84614;SDS011;74845;51.204;22.580;2024-03-02T09:24:04;26.83;;;24.00;;
84614;SDS011;74845;51.204;22.580;2024-03-02T09:26:33;28.23;;;25.33;;
84614;SDS011;74845;51.204;22.580;2024-03-02T09:29:00;27.75;;;23.83;;
84614;SDS011;74845;51.204;22.580;2024-03-02T09:31:27;29.02;;;25.38;;
84614;SDS011;74845;51.204;22.580;2024-03-02T09:33:53;28.63;;;24.90;;
84614;SDS011;74845;51.204;22.580;2024-03-02T09:36:21;30.80;;;26.55;;
84614;SDS011;74845;51.204;22.580;2024-03-02T09:38:49;26.65;;;23.80;;
84614;SDS011;74845;51.204;22.580;2024-03-02T09:41:16;29.27;;;26.15;;
84614;SDS011;74845;51.204;22.580;2024-03-02T09:43:43;29.75;;;26.67;;
84614;SDS011;74845;51.204;22.580;2024-03-02T09:46:10;30.40;;;25.40;;
84614;SDS011;74845;51.204;22.580;2024-03-02T09:48:37;33.60;;;27.67;;
84614;SDS011;74845;51.204;22.580;2024-03-02T09:51:05;32.10;;;28.58;;
84614;SDS011;74845;51.204;22.580;2024-03-02T09:53:32;29.85;;;25.80;;
84614;SDS011;74845;51.204;22.580;2024-03-02T09:56:00;29.52;;;25.67;;
84614;SDS011;74845;51.204;22.580;2024-03-02T09:58:27;32.88;;;28.85;;
84614;SDS011;74845;51.204;22.580;2024-03-02T10:00:54;34.58;;;28.85;;
84614;SDS011;74845;51.204;22.580;2024-03-02T10:03:22;32.47;;;29.05;;
84614;SDS011;74845;51.204;22.580;2024-03-02T10:05:51;58.72;;;52.78;;
84614;SDS011;74845;51.204;22.580;2024-03-02T10:08:18;39.15;;;34.97;;
84614;SDS011;74845;51.204;22.580;2024-03-02T10:10:45;30.25;;;26.95;;
84614;SDS011;74845;51.204;22.580;2024-03-02T10:13:12;30.85;;;27.55;;
84614;SDS011;74845;51.204;22.580;2024-03-02T10:15:40;34.47;;;27.10;;
84614;SDS011;74845;51.204;22.580;2024-03-02T10:18:09;28.67;;;25.58;;
84614;SDS011;74845;51.204;22.580;2024-03-02T10:20:38;27.90;;;23.23;;
84614;SDS011;74845;51.204;22.580;2024-03-02T10:23:09;27.60;;;24.67;;
84614;SDS011;74845;51.204;22.580;2024-03-02T10:25:37;36.33;;;30.17;;
84614;SDS011;74845;51.204;22.580;2024-03-02T10:28:17;28.77;;;25.75;;
84614;SDS011;74845;51.204;22.580;2024-03-02T10:30:47;29.95;;;24.77;;
84614;SDS011;74845;51.204;22.580;2024-03-02T10:33:15;30.75;;;27.73;;
84614;SDS011;74845;51.204;22.580;2024-03-02T10:35:43;28.02;;;24.98;;
84614;SDS011;74845;51.204;22.580;2024-03-02T10:38:10;29.63;;;26.48;;
84614;SDS011;74845;51.204;22.580;2024-03-02T10:40:38;34.00;;;30.13;;
84614;SDS011;74845;51.204;22.580;2024-03-02T10:43:05;32.38;;;27.30;;
84614;SDS011;74845;51.204;22.580;2024-03-02T10:45:32;28.88;;;25.90;;
84614;SDS011;74845;51.204;22.580;2024-03-02T10:48:00;28.52;;;25.05;;
84614;SDS011;74845;51.204;22.580;2024-03-02T10:50:29;31.08;;;26.25;;
84614;SDS011;74845;51.204;22.580;2024-03-02T10:52:56;29.38;;;26.25;;
84614;SDS011;74845;51.204;22.580;2024-03-02T10:55:23;29.17;;;25.95;;
84614;SDS011;74845;51.204;22.580;2024-03-02T10:57:51;27.85;;;25.08;;
84614;SDS011;74845;51.204;22.580;2024-03-02T11:00:24;28.08;;;23.92;;
84614;SDS011;74845;51.204;22.580;2024-03-02T11:02:56;34.13;;;27.83;;
84614;SDS011;74845;51.204;22.580;2024-03-02T11:05:28;28.55;;;25.33;;
84614;SDS011;74845;51.204;22.580;2024-03-02T11:08:02;27.83;;;24.90;;
84614;SDS011;74845;51.204;22.580;2024-03-02T11:10:36;30.35;;;27.35;;
84614;SDS011;74845;51.204;22.580;2024-03-02T11:13:13;28.88;;;25.90;;
84614;SDS011;74845;51.204;22.580;2024-03-02T11:15:42;29.98;;;26.42;;
84614;SDS011;74845;51.204;22.580;2024-03-02T11:18:10;30.88;;;26.85;;
84614;SDS011;74845;51.204;22.580;2024-03-02T11:20:39;29.10;;;25.85;;
84614;SDS011;74845;51.204;22.580;2024-03-02T11:23:07;30.20;;;26.88;;
84614;SDS011;74845;51.204;22.580;2024-03-02T11:25:35;31.02;;;27.90;;
84614;SDS011;74845;51.204;22.580;2024-03-02T11:28:03;36.28;;;26.75;;
84614;SDS011;74845;51.204;22.580;2024-03-02T11:33:05;28.33;;;25.30;;
84614;SDS011;74845;51.204;22.580;2024-03-02T11:35:38;30.67;;;27.70;;
84614;SDS011;74845;51.204;22.580;2024-03-02T11:38:15;29.60;;;26.35;;
84614;SDS011;74845;51.204;22.580;2024-03-02T11:40:42;31.50;;;26.08;;
84614;SDS011;74845;51.204;22.580;2024-03-02T11:43:09;27.75;;;24.80;;
84614;SDS011;74845;51.204;22.580;2024-03-02T11:45:37;29.50;;;26.35;;
84614;SDS011;74845;51.204;22.580;2024-03-02T11:48:08;30.27;;;26.80;;
84614;SDS011;74845;51.204;22.580;2024-03-02T11:50:40;30.27;;;25.45;;
84614;SDS011;74845;51.204;22.580;2024-03-02T11:53:15;30.40;;;27.20;;
84614;SDS011;74845;51.204;22.580;2024-03-02T11:55:43;31.67;;;27.10;;
84614;SDS011;74845;51.204;22.580;2024-03-02T11:58:14;25.52;;;22.90;;
84614;SDS011;74845;51.204;22.580;2024-03-02T12:00:47;28.73;;;25.58;;
84614;SDS011;74845;51.204;22.580;2024-03-02T12:03:18;26.65;;;21.48;;
84614;SDS011;74845;51.204;22.580;2024-03-02T12:05:51;26.02;;;23.30;;
84614;SDS011;74845;51.204;22.580;2024-03-02T12:08:19;28.67;;;24.20;;
84614;SDS011;74845;51.204;22.580;2024-03-02T12:11:04;27.20;;;23.77;;
84614;SDS011;74845;51.204;22.580;2024-03-02T12:13:33;27.17;;;22.48;;
84614;SDS011;74845;51.204;22.580;2024-03-02T12:16:00;24.70;;;22.50;;
84614;SDS011;74845;51.204;22.580;2024-03-02T12:18:27;25.88;;;22.80;;
84614;SDS011;74845;51.204;22.580;2024-03-02T12:20:54;25.48;;;23.13;;
84614;SDS011;74845;51.204;22.580;2024-03-02T12:23:25;32.33;;;28.95;;
84614;SDS011;74845;51.204;22.580;2024-03-02T12:25:52;26.88;;;24.13;;
84614;SDS011;74845;51.204;22.580;2024-03-02T12:28:19;25.33;;;22.73;;
84614;SDS011;74845;51.204;22.580;2024-03-02T12:30:46;35.67;;;31.65;;
84614;SDS011;74845;51.204;22.580;2024-03-02T12:33:14;29.35;;;26.42;;
84614;SDS011;74845;51.204;22.580;2024-03-02T12:35:41;27.40;;;24.50;;
84614;SDS011;74845;51.204;22.580;2024-03-02T12:38:09;31.33;;;27.33;;
84614;SDS011;74845;51.204;22.580;2024-03-02T12:40:37;27.98;;;24.42;;
84614;SDS011;74845;51.204;22.580;2024-03-02T12:43:05;27.15;;;24.23;;
84614;SDS011;74845;51.204;22.580;2024-03-02T12:45:33;28.48;;;24.77;;
84614;SDS011;74845;51.204;22.580;2024-03-02T12:48:00;27.45;;;22.83;;
84614;SDS011;74845;51.204;22.580;2024-03-02T12:50:28;26.42;;;23.55;;
84614;SDS011;74845;51.204;22.580;2024-03-02T12:52:55;26.23;;;23.35;;
84614;SDS011;74845;51.204;22.580;2024-03-02T12:55:23;25.98;;;23.27;;
84614;SDS011;74845;51.204;22.580;2024-03-02T12:57:53;28.33;;;25.05;;
84614;SDS011;74845;51.204;22.580;2024-03-02T13:00:21;25.80;;;22.38;;
84614;SDS011;74845;51.204;22.580;2024-03-02T13:02:49;26.35;;;23.27;;
84614;SDS011;74845;51.204;22.580;2024-03-02T13:05:18;25.92;;;23.23;;
84614;SDS011;74845;51.204;22.580;2024-03-02T13:07:47;25.77;;;23.08;;
84614;SDS011;74845;51.204;22.580;2024-03-02T13:10:14;27.25;;;23.35;;
84614;SDS011;74845;51.204;22.580;2024-03-02T13:12:42;27.15;;;24.45;;
84614;SDS011;74845;51.204;22.580;2024-03-02T13:15:09;26.02;;;23.30;;
84614;SDS011;74845;51.204;22.580;2024-03-02T13:17:41;25.83;;;23.10;;
84614;SDS011;74845;51.204;22.580;2024-03-02T13:20:08;29.65;;;25.30;;
84614;SDS011;74845;51.204;22.580;2024-03-02T13:22:37;24.75;;;22.08;;
84614;SDS011;74845;51.204;22.580;2024-03-02T13:25:04;26.42;;;20.90;;
84614;SDS011;74845;51.204;22.580;2024-03-02T13:27:33;26.13;;;23.42;;
84614;SDS011;74845;51.204;22.580;2024-03-02T13:30:01;27.90;;;25.13;;
84614;SDS011;74845;51.204;22.580;2024-03-02T13:32:29;24.03;;;21.53;;
84614;SDS011;74845;51.204;22.580;2024-03-02T13:34:56;25.98;;;22.98;;
84614;SDS011;74845;51.204;22.580;2024-03-02T13:37:22;25.83;;;23.05;;
84614;SDS011;74845;51.204;22.580;2024-03-02T13:39:50;30.67;;;25.50;;
84614;SDS011;74845;51.204;22.580;2024-03-02T13:42:17;27.08;;;23.00;;
84614;SDS011;74845;51.204;22.580;2024-03-02T13:44:44;24.90;;;22.38;;
84614;SDS011;74845;51.204;22.580;2024-03-02T13:47:17;27.20;;;24.00;;
84614;SDS011;74845;51.204;22.580;2024-03-02T13:49:44;31.52;;;25.42;;
84614;SDS011;74845;51.204;22.580;2024-03-02T13:52:13;31.63;;;23.70;;
84614;SDS011;74845;51.204;22.580;2024-03-02T13:54:41;26.48;;;22.75;;
84614;SDS011;74845;51.204;22.580;2024-03-02T13:57:09;29.20;;;24.48;;
84614;SDS011;74845;51.204;22.580;2024-03-02T13:59:37;34.92;;;30.77;;
84614;SDS011;74845;51.204;22.580;2024-03-02T14:02:05;32.78;;;27.50;;
84614;SDS011;74845;51.204;22.580;2024-03-02T14:04:35;45.28;;;35.97;;
84614;SDS011;74845;51.204;22.580;2024-03-02T14:07:03;34.42;;;30.70;;
84614;SDS011;74845;51.204;22.580;2024-03-02T14:09:33;32.35;;;26.27;;
84614;SDS011;74845;51.204;22.580;2024-03-02T14:12:01;28.20;;;22.63;;
84614;SDS011;74845;51.204;22.580;2024-03-02T14:14:29;31.13;;;25.35;;
84614;SDS011;74845;51.204;22.580;2024-03-02T14:16:55;32.33;;;25.88;;
84614;SDS011;74845;51.204;22.580;2024-03-02T14:19:22;27.60;;;22.35;;
84614;SDS011;74845;51.204;22.580;2024-03-02T14:21:49;24.98;;;22.33;;
84614;SDS011;74845;51.204;22.580;2024-03-02T14:24:16;28.02;;;24.33;;
84614;SDS011;74845;51.204;22.580;2024-03-02T14:32:49;25.20;;;22.45;;